createdAt,value
2017-09-30T00:00:00.007Z,57.60
2017-09-30T00:02:34.571Z,57.90
2017-09-30T00:05:09.105Z,58.10
2017-09-30T00:07:43.689Z,58.60
2017-09-30T00:10:19.233Z,58.60
2017-09-30T00:12:53.687Z,58.70
2017-09-30T00:15:28.293Z,58.80
2017-09-30T00:18:02.892Z,58.80
2017-09-30T00:20:38.266Z,58.40
2017-09-30T00:23:12.929Z,58.40
2017-09-30T00:25:48.245Z,58.00
2017-09-30T00:28:22.781Z,58.00
2017-09-30T00:30:57.422Z,58.00
2017-09-30T00:33:31.874Z,58.00
2017-09-30T00:36:06.421Z,58.10
2017-09-30T00:38:40.949Z,58.00
2017-09-30T00:41:15.647Z,57.90
2017-09-30T00:43:50.318Z,58.00
2017-09-30T00:46:24.919Z,58.00
2017-09-30T00:48:59.377Z,57.90
2017-09-30T00:51:33.896Z,58.00
2017-09-30T00:54:08.345Z,58.00
2017-09-30T00:56:42.186Z,57.90
2017-09-30T00:59:16.037Z,57.90
2017-09-30T01:01:50.455Z,57.90
2017-09-30T01:04:24.900Z,57.90
2017-09-30T01:06:59.482Z,57.60
2017-09-30T01:09:33.978Z,57.60
2017-09-30T01:12:08.565Z,57.50
2017-09-30T01:14:42.982Z,57.50
2017-09-30T01:17:18.313Z,57.50
2017-09-30T01:19:52.405Z,57.50
2017-09-30T01:22:26.573Z,57.70
2017-09-30T01:25:00.673Z,57.70
2017-09-30T01:27:35.186Z,57.70
2017-09-30T01:30:15.070Z,57.80
2017-09-30T01:32:49.293Z,58.20
2017-09-30T01:35:23.386Z,58.00
2017-09-30T01:37:57.687Z,57.90
2017-09-30T01:40:31.911Z,58.00
2017-09-30T01:43:06.098Z,58.00
2017-09-30T01:45:40.713Z,58.00
2017-09-30T01:48:14.581Z,58.00
2017-09-30T01:50:48.707Z,57.80
2017-09-30T01:53:23.306Z,57.90
2017-09-30T01:55:57.901Z,58.30
2017-09-30T01:58:31.757Z,58.00
2017-09-30T02:01:05.532Z,57.90
2017-09-30T02:03:40.319Z,57.90
2017-09-30T02:06:14.757Z,58.00
2017-09-30T02:08:49.373Z,58.00
2017-09-30T02:11:23.939Z,58.10
2017-09-30T02:13:58.559Z,58.10
2017-09-30T02:16:33.155Z,58.20
2017-09-30T02:19:07.737Z,58.20
2017-09-30T02:21:42.376Z,58.30
2017-09-30T02:24:16.873Z,58.10
2017-09-30T02:26:51.485Z,58.00
2017-09-30T02:29:25.973Z,58.10
2017-09-30T02:32:00.566Z,58.20
2017-09-30T02:34:35.121Z,58.30
2017-09-30T02:37:10.471Z,58.50
2017-09-30T02:39:44.974Z,58.40
2017-09-30T02:42:19.533Z,58.50
2017-09-30T02:44:53.974Z,58.60
2017-09-30T02:47:28.576Z,58.70
2017-09-30T02:50:03.290Z,58.80
2017-09-30T02:52:42.929Z,58.90
2017-09-30T02:55:17.482Z,59.00
2017-09-30T02:57:51.925Z,59.00
2017-09-30T03:00:26.517Z,59.10
2017-09-30T03:03:01.029Z,59.30
2017-09-30T03:05:36.373Z,59.90
2017-09-30T03:08:10.877Z,59.50
2017-09-30T03:10:45.449Z,59.60
2017-09-30T03:13:20.215Z,59.60
2017-09-30T03:15:54.770Z,59.80
2017-09-30T03:18:29.429Z,59.80
2017-09-30T03:21:04.005Z,59.80
2017-09-30T03:23:38.449Z,59.90
2017-09-30T03:26:13.077Z,59.80
2017-09-30T03:28:47.517Z,59.80
2017-09-30T03:31:22.139Z,59.80
2017-09-30T03:33:57.105Z,59.90
2017-09-30T03:36:31.766Z,60.10
2017-09-30T03:39:07.045Z,60.30
2017-09-30T03:41:41.750Z,60.30
2017-09-30T03:44:16.428Z,60.40
2017-09-30T03:46:50.950Z,60.60
2017-09-30T03:49:25.539Z,60.70
2017-09-30T03:52:00.869Z,60.70
2017-09-30T03:54:35.346Z,60.70
2017-09-30T03:57:09.917Z,60.70
2017-09-30T03:59:44.482Z,60.60
2017-09-30T04:02:19.890Z,60.90
2017-09-30T04:04:54.477Z,61.00
2017-09-30T04:07:29.040Z,61.10
2017-09-30T04:10:13.343Z,61.10
2017-09-30T04:12:47.877Z,61.20
2017-09-30T04:15:22.450Z,61.20
2017-09-30T04:17:57.035Z,61.30
2017-09-30T04:20:31.551Z,61.40
2017-09-30T04:23:06.109Z,61.40
2017-09-30T04:25:40.665Z,61.50
2017-09-30T04:28:16.055Z,61.50
2017-09-30T04:30:50.675Z,61.50
2017-09-30T04:33:25.242Z,61.70
2017-09-30T04:35:59.761Z,62.00
2017-09-30T04:38:34.217Z,62.30
2017-09-30T04:41:08.754Z,62.50
2017-09-30T04:43:43.313Z,62.60
2017-09-30T04:46:17.868Z,62.60
2017-09-30T04:48:52.401Z,62.90
2017-09-30T04:51:26.619Z,62.70
2017-09-30T04:54:01.065Z,62.80
2017-09-30T04:56:35.826Z,62.80
2017-09-30T04:59:10.250Z,62.90
2017-09-30T05:01:44.858Z,63.10
2017-09-30T05:04:19.490Z,63.20
2017-09-30T05:06:54.017Z,63.30
2017-09-30T05:09:28.616Z,63.40
2017-09-30T05:12:02.955Z,63.40
2017-09-30T05:14:37.531Z,63.30
2017-09-30T05:17:12.781Z,63.30
2017-09-30T05:19:47.538Z,63.30
2017-09-30T05:22:22.145Z,63.30
2017-09-30T05:24:56.739Z,63.20
2017-09-30T05:27:32.069Z,62.90
2017-09-30T05:30:15.293Z,62.90
2017-09-30T05:32:49.854Z,62.80
2017-09-30T05:35:24.510Z,62.50
2017-09-30T05:37:59.050Z,62.30
2017-09-30T05:40:33.592Z,62.30
2017-09-30T05:43:08.177Z,62.00
2017-09-30T05:45:42.577Z,62.00
2017-09-30T05:48:17.082Z,62.00
2017-09-30T05:50:51.617Z,61.60
2017-09-30T05:53:26.161Z,61.50
2017-09-30T05:56:00.850Z,61.00
2017-09-30T05:58:35.289Z,61.00
2017-09-30T06:01:09.816Z,60.80
2017-09-30T06:03:44.366Z,60.90
2017-09-30T06:06:18.921Z,60.90
2017-09-30T06:08:53.569Z,60.80
2017-09-30T06:11:28.114Z,60.50
2017-09-30T06:14:02.721Z,60.50
2017-09-30T06:16:37.277Z,60.10
2017-09-30T06:19:11.937Z,59.90
2017-09-30T06:21:46.529Z,59.40
2017-09-30T06:24:21.105Z,58.90
2017-09-30T06:26:55.734Z,58.60
2017-09-30T06:29:30.309Z,57.70
2017-09-30T06:32:05.007Z,57.30
2017-09-30T06:34:39.745Z,56.70
2017-09-30T06:37:14.261Z,56.10
2017-09-30T06:39:49.837Z,54.00
2017-09-30T06:42:24.539Z,53.80
2017-09-30T06:44:59.090Z,52.90
2017-09-30T06:47:33.643Z,52.40
2017-09-30T06:50:16.061Z,51.00
2017-09-30T06:52:50.737Z,49.80
2017-09-30T06:55:25.354Z,49.70
2017-09-30T06:57:59.845Z,49.20
2017-09-30T07:00:34.393Z,48.60
2017-09-30T07:03:08.964Z,47.80
2017-09-30T07:05:43.493Z,47.30
2017-09-30T07:08:17.965Z,45.60
2017-09-30T07:10:52.605Z,46.10
2017-09-30T07:13:27.266Z,45.40
2017-09-30T07:16:01.782Z,44.80
2017-09-30T07:18:36.269Z,45.30
2017-09-30T07:21:10.831Z,44.40
2017-09-30T07:23:45.393Z,43.90
2017-09-30T07:26:19.950Z,43.40
2017-09-30T07:28:55.257Z,43.60
2017-09-30T07:31:29.959Z,43.50
2017-09-30T07:34:05.237Z,41.10
2017-09-30T07:36:39.765Z,41.00
2017-09-30T07:39:14.255Z,40.00
2017-09-30T07:41:48.817Z,38.10
2017-09-30T07:44:23.307Z,36.00
2017-09-30T07:46:57.858Z,33.40
2017-09-30T07:49:32.346Z,30.50
2017-09-30T07:52:06.913Z,27.00
2017-09-30T07:54:41.530Z,24.60
2017-09-30T07:57:16.152Z,23.30
2017-09-30T07:59:50.805Z,22.00
2017-09-30T08:02:25.402Z,20.50
2017-09-30T08:04:59.906Z,19.80
2017-09-30T08:07:34.442Z,19.30
2017-09-30T08:10:15.001Z,19.90
2017-09-30T08:12:49.592Z,19.90
2017-09-30T08:15:24.126Z,20.30
2017-09-30T08:17:59.485Z,20.90
2017-09-30T08:20:33.918Z,20.80
2017-09-30T08:23:08.782Z,21.10
2017-09-30T08:25:43.400Z,19.00
2017-09-30T08:28:18.033Z,18.20
2017-09-30T08:30:52.577Z,18.50
2017-09-30T08:33:27.120Z,19.00
2017-09-30T08:36:01.524Z,18.60
2017-09-30T08:38:35.964Z,18.50
2017-09-30T08:41:10.497Z,16.80
2017-09-30T08:43:45.161Z,18.20
2017-09-30T08:46:19.681Z,18.50
2017-09-30T08:48:54.356Z,20.70
2017-09-30T08:51:28.870Z,20.00
2017-09-30T08:54:03.310Z,19.00
2017-09-30T08:56:37.745Z,18.40
2017-09-30T08:59:12.459Z,18.20
2017-09-30T09:01:47.279Z,19.40
2017-09-30T09:04:21.709Z,19.60
2017-09-30T09:06:56.277Z,20.00
2017-09-30T09:09:30.729Z,19.30
2017-09-30T09:12:05.314Z,18.90
2017-09-30T09:14:39.969Z,18.30
2017-09-30T09:17:14.521Z,18.00
2017-09-30T09:19:49.057Z,19.30
2017-09-30T09:22:23.581Z,19.40
2017-09-30T09:24:58.022Z,20.00
2017-09-30T09:27:32.574Z,19.80
2017-09-30T09:30:14.739Z,18.30
2017-09-30T09:32:49.285Z,18.30
2017-09-30T09:35:23.837Z,18.20
2017-09-30T09:37:58.447Z,18.90
2017-09-30T09:40:32.785Z,18.70
2017-09-30T09:43:07.433Z,18.50
2017-09-30T09:45:42.075Z,17.80
2017-09-30T09:48:16.654Z,17.30
2017-09-30T09:50:51.382Z,17.60
2017-09-30T09:53:26.697Z,17.00
2017-09-30T09:56:01.376Z,17.00
2017-09-30T09:58:36.128Z,17.10
2017-09-30T10:01:10.643Z,17.30
2017-09-30T10:03:45.089Z,17.30
2017-09-30T10:06:19.682Z,17.30
2017-09-30T10:08:54.197Z,16.80
2017-09-30T10:11:28.513Z,17.10
2017-09-30T10:14:03.797Z,16.80
2017-09-30T10:16:38.553Z,16.60
2017-09-30T10:19:13.030Z,16.30
2017-09-30T10:21:48.298Z,18.40
2017-09-30T10:24:22.803Z,18.40
2017-09-30T10:26:57.412Z,18.50
2017-09-30T10:29:31.956Z,19.40
2017-09-30T10:32:06.609Z,18.40
2017-09-30T10:34:41.078Z,17.60
2017-09-30T10:37:15.612Z,18.10
2017-09-30T10:39:50.209Z,20.00
2017-09-30T10:42:25.013Z,18.50
2017-09-30T10:44:59.837Z,19.50
2017-09-30T10:47:34.311Z,18.50
2017-09-30T10:50:15.858Z,18.20
2017-09-30T10:52:50.461Z,19.40
2017-09-30T10:55:25.089Z,19.10
2017-09-30T10:57:59.725Z,18.10
2017-09-30T11:00:34.022Z,18.20
2017-09-30T11:03:08.490Z,17.60
2017-09-30T11:05:43.107Z,18.50
2017-09-30T11:08:18.325Z,20.70
2017-09-30T11:10:52.897Z,20.70
2017-09-30T11:13:27.306Z,19.50
2017-09-30T11:16:01.926Z,19.00
2017-09-30T11:18:36.497Z,18.80
2017-09-30T11:21:11.049Z,19.30
2017-09-30T11:23:45.549Z,20.00
2017-09-30T11:26:20.078Z,18.80
2017-09-30T11:28:54.570Z,18.50
2017-09-30T11:31:29.170Z,17.40
2017-09-30T11:34:03.605Z,17.90
2017-09-30T11:36:38.364Z,18.10
2017-09-30T11:39:12.925Z,18.20
2017-09-30T11:41:47.502Z,18.60
2017-09-30T11:44:21.974Z,17.70
2017-09-30T11:46:56.574Z,17.40
2017-09-30T11:49:31.174Z,19.10
2017-09-30T11:52:05.833Z,18.60
2017-09-30T11:54:40.485Z,19.50
2017-09-30T11:57:15.874Z,19.50
2017-09-30T11:59:50.433Z,19.50
2017-09-30T12:02:25.010Z,17.90
2017-09-30T12:04:59.507Z,18.30
2017-09-30T12:07:34.116Z,17.70
2017-09-30T12:10:17.973Z,17.70
2017-09-30T12:12:52.630Z,16.90
2017-09-30T12:15:27.126Z,17.30
2017-09-30T12:18:01.783Z,17.70
2017-09-30T12:20:36.361Z,17.50
2017-09-30T12:23:11.013Z,17.40
2017-09-30T12:25:45.666Z,17.60
2017-09-30T12:28:20.103Z,17.70
2017-09-30T12:30:54.581Z,18.70
2017-09-30T12:33:29.201Z,18.50
2017-09-30T12:36:03.722Z,18.30
2017-09-30T12:38:38.349Z,18.40
2017-09-30T12:41:12.957Z,18.90
2017-09-30T12:43:47.617Z,19.70
2017-09-30T12:46:22.390Z,21.20
2017-09-30T12:48:56.717Z,22.90
2017-09-30T12:51:31.206Z,24.40
2017-09-30T12:54:05.643Z,26.30
2017-09-30T12:56:40.261Z,26.10
2017-09-30T12:59:14.748Z,26.80
2017-09-30T13:01:49.323Z,27.70
2017-09-30T13:04:23.822Z,28.80
2017-09-30T13:06:58.410Z,29.00
2017-09-30T13:09:33.088Z,29.70
2017-09-30T13:12:07.545Z,30.80
2017-09-30T13:14:42.021Z,31.20
2017-09-30T13:17:16.613Z,32.00
2017-09-30T13:19:51.074Z,32.00
2017-09-30T13:22:25.616Z,31.30
2017-09-30T13:25:00.272Z,31.20
2017-09-30T13:27:34.814Z,31.10
2017-09-30T13:30:15.959Z,31.30
2017-09-30T13:32:50.729Z,31.70
2017-09-30T13:35:25.422Z,32.30
2017-09-30T13:37:59.990Z,32.10
2017-09-30T13:40:34.561Z,32.10
2017-09-30T13:43:09.121Z,31.90
2017-09-30T13:45:43.705Z,32.00
2017-09-30T13:48:18.557Z,32.00
2017-09-30T13:50:53.163Z,32.50
2017-09-30T13:53:27.727Z,32.90
2017-09-30T13:56:02.317Z,32.90
2017-09-30T13:58:36.791Z,32.40
2017-09-30T14:01:11.585Z,32.70
2017-09-30T14:03:46.311Z,32.80
2017-09-30T14:06:21.657Z,33.30
2017-09-30T14:08:56.258Z,33.20
2017-09-30T14:11:30.821Z,33.40
2017-09-30T14:14:05.916Z,33.50
2017-09-30T14:16:40.645Z,34.00
2017-09-30T14:19:15.157Z,33.80
2017-09-30T14:21:49.814Z,33.90
2017-09-30T14:24:24.403Z,33.90
2017-09-30T14:26:58.970Z,34.80
2017-09-30T14:29:33.434Z,35.20
2017-09-30T14:32:07.981Z,35.50
2017-09-30T14:34:42.528Z,35.70
2017-09-30T14:37:17.106Z,35.40
2017-09-30T14:39:51.722Z,35.70
2017-09-30T14:42:26.336Z,35.60
2017-09-30T14:45:01.013Z,35.60
2017-09-30T14:47:35.631Z,35.60
2017-09-30T14:50:16.353Z,35.80
2017-09-30T14:52:50.970Z,36.20
2017-09-30T14:55:25.601Z,35.90
2017-09-30T14:58:00.060Z,35.90
2017-09-30T15:00:34.685Z,36.40
2017-09-30T15:03:09.547Z,36.90
2017-09-30T15:05:44.006Z,37.40
2017-09-30T15:08:18.545Z,37.60
2017-09-30T15:10:53.089Z,37.40
2017-09-30T15:13:27.514Z,37.60
2017-09-30T15:16:02.089Z,37.70
2017-09-30T15:18:37.514Z,38.40
2017-09-30T15:21:12.150Z,38.30
2017-09-30T15:23:46.782Z,38.60
2017-09-30T15:26:21.395Z,38.30
2017-09-30T15:28:55.855Z,38.50
2017-09-30T15:31:30.370Z,38.60
2017-09-30T15:34:04.873Z,38.70
2017-09-30T15:36:39.475Z,39.10
2017-09-30T15:39:14.097Z,39.20
2017-09-30T15:41:48.704Z,39.50
2017-09-30T15:44:23.263Z,39.50
2017-09-30T15:46:58.518Z,39.40
2017-09-30T15:49:33.089Z,39.40
2017-09-30T15:52:07.626Z,39.40
2017-09-30T15:54:42.193Z,39.80
2017-09-30T15:57:17.863Z,40.40
2017-09-30T15:59:52.486Z,39.80
2017-09-30T16:02:26.981Z,40.30
2017-09-30T16:05:01.585Z,40.40
2017-09-30T16:07:36.181Z,40.40
2017-09-30T16:10:15.110Z,40.40
2017-09-30T16:12:49.666Z,40.40
2017-09-30T16:15:24.275Z,40.60
2017-09-30T16:17:58.893Z,40.70
2017-09-30T16:20:33.418Z,40.90
2017-09-30T16:23:08.009Z,40.70
2017-09-30T16:25:42.582Z,41.00
2017-09-30T16:28:17.054Z,40.80
2017-09-30T16:30:51.609Z,40.80
2017-09-30T16:33:26.174Z,40.90
2017-09-30T16:36:00.730Z,41.20
2017-09-30T16:38:35.376Z,41.10
2017-09-30T16:41:09.877Z,41.40
2017-09-30T16:43:44.438Z,41.20
2017-09-30T16:46:19.196Z,41.30
2017-09-30T16:48:54.669Z,41.30
2017-09-30T16:51:29.213Z,41.50
2017-09-30T16:54:03.882Z,41.60
2017-09-30T16:56:38.501Z,42.00
2017-09-30T16:59:13.157Z,42.10
2017-09-30T17:01:47.722Z,42.40
2017-09-30T17:04:22.237Z,42.60
2017-09-30T17:06:56.833Z,42.90
2017-09-30T17:09:31.438Z,42.90
2017-09-30T17:12:06.113Z,43.20
2017-09-30T17:14:40.541Z,43.30
2017-09-30T17:17:15.306Z,43.50
2017-09-30T17:19:49.762Z,43.70
2017-09-30T17:22:24.423Z,43.80
2017-09-30T17:24:58.937Z,44.10
2017-09-30T17:27:33.593Z,44.30
2017-09-30T17:30:16.532Z,44.60
2017-09-30T17:32:51.805Z,44.90
2017-09-30T17:35:26.241Z,44.90
2017-09-30T17:38:00.805Z,45.10
2017-09-30T17:40:35.314Z,45.20
2017-09-30T17:43:09.844Z,45.40
2017-09-30T17:45:44.338Z,45.40
2017-09-30T17:48:19.025Z,45.60
2017-09-30T17:50:53.630Z,45.70
2017-09-30T17:53:28.313Z,45.80
2017-09-30T17:56:02.825Z,45.80
2017-09-30T17:58:37.451Z,45.90
2017-09-30T18:01:12.121Z,45.90
2017-09-30T18:03:46.714Z,46.30
2017-09-30T18:06:21.308Z,46.40
2017-09-30T18:08:56.107Z,46.60
2017-09-30T18:11:32.445Z,46.70
2017-09-30T18:14:06.910Z,46.80
2017-09-30T18:16:41.572Z,47.00
2017-09-30T18:19:16.226Z,47.00
2017-09-30T18:21:51.070Z,47.10
2017-09-30T18:24:25.678Z,47.20
2017-09-30T18:27:00.282Z,47.20
2017-09-30T18:29:34.731Z,47.10
2017-09-30T18:32:09.241Z,47.40
2017-09-30T18:34:43.969Z,47.60
2017-09-30T18:37:19.265Z,47.60
2017-09-30T18:39:53.863Z,47.60
2017-09-30T18:42:28.398Z,47.70
2017-09-30T18:47:47.424Z,48.10
2017-09-30T18:50:22.030Z,48.20
2017-09-30T18:52:56.589Z,48.20
2017-09-30T18:55:31.161Z,48.30
2017-09-30T18:58:05.598Z,48.50
2017-09-30T19:00:40.170Z,48.50
2017-09-30T19:03:14.741Z,48.60
2017-09-30T19:05:49.317Z,48.70
2017-09-30T19:08:24.734Z,48.80
2017-09-30T19:10:59.305Z,48.80
2017-09-30T19:13:33.974Z,48.90
2017-09-30T19:16:08.493Z,49.00
2017-09-30T19:18:42.953Z,49.00
2017-09-30T19:21:17.490Z,49.00
2017-09-30T19:23:52.161Z,48.80
2017-09-30T19:26:26.733Z,48.90
2017-09-30T19:29:01.241Z,49.00
2017-09-30T19:31:36.025Z,49.00
2017-09-30T19:34:11.301Z,49.00
2017-09-30T19:36:45.788Z,48.90
2017-09-30T19:39:20.383Z,49.00
2017-09-30T19:41:54.948Z,48.90
2017-09-30T19:44:29.270Z,49.00
2017-09-30T19:47:03.831Z,49.00
2017-09-30T19:49:38.417Z,48.90
2017-09-30T19:52:13.073Z,49.00
2017-09-30T19:54:47.682Z,48.80
2017-09-30T19:57:22.180Z,48.80
2017-09-30T19:59:57.478Z,49.00
2017-09-30T20:02:32.898Z,48.90
2017-09-30T20:05:16.777Z,48.80
2017-09-30T20:07:52.079Z,48.60
2017-09-30T20:10:26.733Z,48.40
2017-09-30T20:13:01.218Z,48.60
2017-09-30T20:15:35.762Z,48.70
2017-09-30T20:18:10.362Z,48.80
2017-09-30T20:20:44.919Z,48.90
2017-09-30T20:23:19.390Z,48.80
2017-09-30T20:25:53.889Z,49.00
2017-09-30T20:28:28.460Z,49.20
2017-09-30T20:31:03.081Z,49.00
2017-09-30T20:33:37.659Z,49.00
2017-09-30T20:36:13.081Z,49.00
2017-09-30T20:38:47.508Z,48.90
2017-09-30T20:41:22.142Z,49.10
2017-09-30T20:43:56.765Z,49.30
2017-09-30T20:46:31.394Z,49.30
2017-09-30T20:49:05.902Z,49.20
2017-09-30T20:51:40.571Z,49.40
2017-09-30T20:54:15.142Z,49.30
2017-09-30T20:56:49.698Z,49.40
2017-09-30T20:59:24.291Z,49.40
2017-09-30T21:01:59.728Z,49.20
2017-09-30T21:04:34.287Z,49.30
2017-09-30T21:07:09.040Z,49.20
2017-09-30T21:09:43.722Z,48.80
2017-09-30T21:12:18.244Z,48.50
2017-09-30T21:14:52.726Z,48.10
2017-09-30T21:17:27.286Z,48.10
2017-09-30T21:20:01.846Z,48.00
2017-09-30T21:22:36.496Z,48.00
2017-09-30T21:25:17.483Z,47.90
2017-09-30T21:27:51.944Z,47.90
2017-09-30T21:30:26.494Z,47.80
2017-09-30T21:33:01.119Z,47.80
2017-09-30T21:35:35.719Z,48.00
2017-09-30T21:38:10.354Z,47.80
2017-09-30T21:40:44.984Z,47.90
2017-09-30T21:43:19.611Z,48.10
2017-09-30T21:45:54.262Z,48.00
2017-09-30T21:48:28.977Z,48.00
2017-09-30T21:51:03.468Z,48.20
2017-09-30T21:53:37.918Z,48.40
2017-09-30T21:56:12.574Z,48.70
2017-09-30T21:58:47.068Z,48.80
2017-09-30T22:01:21.298Z,49.00
2017-09-30T22:03:56.054Z,49.30
2017-09-30T22:06:30.638Z,49.30
2017-09-30T22:09:04.461Z,49.50
2017-09-30T22:11:39.093Z,49.70
2017-09-30T22:14:13.814Z,49.90
2017-09-30T22:16:48.389Z,50.30
2017-09-30T22:19:22.969Z,50.70
2017-09-30T22:21:57.563Z,51.00
2017-09-30T22:24:32.931Z,52.00
2017-09-30T22:27:07.610Z,52.10
2017-09-30T22:29:42.281Z,52.60
2017-09-30T22:32:16.871Z,53.00
2017-09-30T22:34:52.235Z,53.40
2017-09-30T22:37:27.674Z,53.70
2017-09-30T22:42:47.409Z,53.70
2017-09-30T22:45:21.903Z,54.10
2017-09-30T22:47:57.114Z,54.60
2017-09-30T22:50:31.612Z,54.60
2017-09-30T22:53:06.519Z,54.80
2017-09-30T22:55:41.112Z,54.90
2017-09-30T22:58:16.001Z,55.20
2017-09-30T23:00:50.621Z,55.50
2017-09-30T23:03:25.096Z,55.60
2017-09-30T23:05:59.595Z,55.70
2017-09-30T23:08:34.134Z,56.00
2017-09-30T23:11:08.724Z,56.50
2017-09-30T23:13:43.318Z,56.80
2017-09-30T23:16:17.898Z,57.00
2017-09-30T23:18:52.455Z,57.10
2017-09-30T23:21:26.994Z,57.00
2017-09-30T23:24:01.635Z,57.10
2017-09-30T23:26:36.154Z,57.30
2017-09-30T23:29:10.651Z,57.40
2017-09-30T23:31:47.594Z,57.50
2017-09-30T23:34:22.638Z,57.20
2017-09-30T23:36:58.001Z,57.30
2017-09-30T23:39:32.643Z,57.20
2017-09-30T23:42:07.114Z,57.30
2017-09-30T23:44:41.799Z,57.60
2017-09-30T23:47:16.403Z,57.80
2017-09-30T23:49:51.822Z,58.00
2017-09-30T23:52:26.406Z,58.00
2017-09-30T23:55:01.213Z,58.20
2017-09-30T23:57:35.650Z,58.50
